sensor_id;sensor_type;location;lat;lon;timestamp;P1;durP1;ratioP1;P2;durP2;ratioP2
41629;SDS011;27322;49.488;8.480;2022-10-31T00:01:09;17.40;;;9.05;;
41629;SDS011;27322;49.488;8.480;2022-10-31T00:03:55;14.45;;;8.38;;
41629;SDS011;27322;49.488;8.480;2022-10-31T00:06:21;15.70;;;8.52;;
41629;SDS011;27322;49.488;8.480;2022-10-31T00:08:51;15.20;;;8.63;;
41629;SDS011;27322;49.488;8.480;2022-10-31T00:11:18;17.52;;;9.88;;
41629;SDS011;27322;49.488;8.480;2022-10-31T00:13:44;14.50;;;9.05;;
41629;SDS011;27322;49.488;8.480;2022-10-31T00:16:13;15.57;;;8.27;;
41629;SDS011;27322;49.488;8.480;2022-10-31T00:18:40;16.70;;;8.20;;
41629;SDS011;27322;49.488;8.480;2022-10-31T00:21:06;15.13;;;8.82;;
41629;SDS011;27322;49.488;8.480;2022-10-31T00:23:31;15.82;;;9.73;;
41629;SDS011;27322;49.488;8.480;2022-10-31T00:26:03;14.38;;;9.50;;
41629;SDS011;27322;49.488;8.480;2022-10-31T00:28:30;14.40;;;9.75;;
41629;SDS011;27322;49.488;8.480;2022-10-31T00:31:00;18.02;;;10.23;;
41629;SDS011;27322;49.488;8.480;2022-10-31T00:33:27;18.77;;;10.38;;
41629;SDS011;27322;49.488;8.480;2022-10-31T00:35:53;20.17;;;10.70;;
41629;SDS011;27322;49.488;8.480;2022-10-31T00:38:19;16.40;;;9.73;;
41629;SDS011;27322;49.488;8.480;2022-10-31T00:40:45;15.57;;;9.50;;
41629;SDS011;27322;49.488;8.480;2022-10-31T00:43:10;15.13;;;8.93;;
41629;SDS011;27322;49.488;8.480;2022-10-31T00:45:36;16.50;;;10.30;;
41629;SDS011;27322;49.488;8.480;2022-10-31T00:48:01;15.10;;;9.05;;
41629;SDS011;27322;49.488;8.480;2022-10-31T00:50:27;14.88;;;8.02;;
41629;SDS011;27322;49.488;8.480;2022-10-31T00:52:52;17.67;;;9.57;;
41629;SDS011;27322;49.488;8.480;2022-10-31T00:55:18;14.45;;;10.13;;
41629;SDS011;27322;49.488;8.480;2022-10-31T00:57:46;16.27;;;10.00;;
41629;SDS011;27322;49.488;8.480;2022-10-31T01:00:12;15.70;;;9.82;;
41629;SDS011;27322;49.488;8.480;2022-10-31T01:02:38;17.98;;;10.48;;
41629;SDS011;27322;49.488;8.480;2022-10-31T01:05:04;16.90;;;9.95;;
41629;SDS011;27322;49.488;8.480;2022-10-31T01:07:30;15.48;;;10.60;;
41629;SDS011;27322;49.488;8.480;2022-10-31T01:09:55;17.90;;;9.95;;
41629;SDS011;27322;49.488;8.480;2022-10-31T01:12:21;15.98;;;9.07;;
41629;SDS011;27322;49.488;8.480;2022-10-31T01:14:46;14.77;;;8.82;;
41629;SDS011;27322;49.488;8.480;2022-10-31T01:17:12;14.88;;;9.65;;
41629;SDS011;27322;49.488;8.480;2022-10-31T01:19:39;16.15;;;9.75;;
41629;SDS011;27322;49.488;8.480;2022-10-31T01:22:05;20.67;;;9.70;;
41629;SDS011;27322;49.488;8.480;2022-10-31T01:24:30;16.10;;;9.90;;
41629;SDS011;27322;49.488;8.480;2022-10-31T01:26:56;11.15;;;7.95;;
41629;SDS011;27322;49.488;8.480;2022-10-31T01:29:22;13.65;;;8.20;;
41629;SDS011;27322;49.488;8.480;2022-10-31T01:31:47;14.13;;;8.43;;
41629;SDS011;27322;49.488;8.480;2022-10-31T01:34:14;15.07;;;8.55;;
41629;SDS011;27322;49.488;8.480;2022-10-31T01:36:41;17.48;;;9.25;;
41629;SDS011;27322;49.488;8.480;2022-10-31T01:39:11;15.90;;;8.80;;
41629;SDS011;27322;49.488;8.480;2022-10-31T01:41:39;16.40;;;8.90;;
41629;SDS011;27322;49.488;8.480;2022-10-31T01:49:15;15.82;;;8.60;;
41629;SDS011;27322;49.488;8.480;2022-10-31T01:51:47;13.90;;;8.48;;
41629;SDS011;27322;49.488;8.480;2022-10-31T01:54:17;13.30;;;7.93;;
41629;SDS011;27322;49.488;8.480;2022-10-31T01:56:47;12.55;;;8.27;;
41629;SDS011;27322;49.488;8.480;2022-10-31T01:59:15;15.77;;;8.23;;
41629;SDS011;27322;49.488;8.480;2022-10-31T02:01:44;17.40;;;9.07;;
41629;SDS011;27322;49.488;8.480;2022-10-31T02:04:11;16.70;;;8.95;;
41629;SDS011;27322;49.488;8.480;2022-10-31T02:09:04;14.48;;;8.73;;
41629;SDS011;27322;49.488;8.480;2022-10-31T02:11:31;15.70;;;9.02;;
41629;SDS011;27322;49.488;8.480;2022-10-31T02:13:58;15.82;;;8.48;;
41629;SDS011;27322;49.488;8.480;2022-10-31T02:16:26;16.38;;;8.95;;
41629;SDS011;27322;49.488;8.480;2022-10-31T02:18:51;15.88;;;8.98;;
41629;SDS011;27322;49.488;8.480;2022-10-31T02:40:23;15.60;;;7.68;;
41629;SDS011;27322;49.488;8.480;2022-10-31T02:45:46;14.32;;;8.05;;
41629;SDS011;27322;49.488;8.480;2022-10-31T02:48:18;14.15;;;8.70;;
41629;SDS011;27322;49.488;8.480;2022-10-31T02:50:52;16.67;;;8.43;;
41629;SDS011;27322;49.488;8.480;2022-10-31T02:53:26;13.82;;;8.18;;
41629;SDS011;27322;49.488;8.480;2022-10-31T02:58:42;19.55;;;8.43;;
41629;SDS011;27322;49.488;8.480;2022-10-31T03:04:16;13.07;;;7.45;;
41629;SDS011;27322;49.488;8.480;2022-10-31T03:09:40;11.82;;;7.88;;
41629;SDS011;27322;49.488;8.480;2022-10-31T03:12:17;12.30;;;7.22;;
41629;SDS011;27322;49.488;8.480;2022-10-31T03:17:36;13.93;;;7.25;;
41629;SDS011;27322;49.488;8.480;2022-10-31T03:20:07;15.30;;;7.13;;
41629;SDS011;27322;49.488;8.480;2022-10-31T03:22:35;15.02;;;7.40;;
41629;SDS011;27322;49.488;8.480;2022-10-31T03:25:03;12.57;;;6.97;;
41629;SDS011;27322;49.488;8.480;2022-10-31T03:27:31;13.13;;;6.88;;
41629;SDS011;27322;49.488;8.480;2022-10-31T03:29:59;11.38;;;6.45;;
41629;SDS011;27322;49.488;8.480;2022-10-31T03:32:29;11.52;;;6.32;;
41629;SDS011;27322;49.488;8.480;2022-10-31T03:35:00;14.40;;;6.30;;
41629;SDS011;27322;49.488;8.480;2022-10-31T03:37:29;12.25;;;6.50;;
41629;SDS011;27322;49.488;8.480;2022-10-31T03:39:58;18.23;;;7.40;;
41629;SDS011;27322;49.488;8.480;2022-10-31T03:42:25;13.85;;;6.65;;
41629;SDS011;27322;49.488;8.480;2022-10-31T03:45:00;15.48;;;6.75;;
41629;SDS011;27322;49.488;8.480;2022-10-31T03:47:35;13.15;;;6.15;;
41629;SDS011;27322;49.488;8.480;2022-10-31T03:50:03;10.88;;;6.47;;
41629;SDS011;27322;49.488;8.480;2022-10-31T03:55:18;11.88;;;6.28;;
41629;SDS011;27322;49.488;8.480;2022-10-31T03:57:51;13.45;;;6.63;;
41629;SDS011;27322;49.488;8.480;2022-10-31T04:00:22;13.75;;;6.60;;
41629;SDS011;27322;49.488;8.480;2022-10-31T04:02:53;13.02;;;6.80;;
41629;SDS011;27322;49.488;8.480;2022-10-31T04:05:24;12.82;;;6.28;;
41629;SDS011;27322;49.488;8.480;2022-10-31T04:07:53;12.43;;;6.22;;
41629;SDS011;27322;49.488;8.480;2022-10-31T04:10:21;11.88;;;6.07;;
41629;SDS011;27322;49.488;8.480;2022-10-31T04:12:50;12.73;;;5.93;;
41629;SDS011;27322;49.488;8.480;2022-10-31T04:15:22;14.23;;;6.22;;
41629;SDS011;27322;49.488;8.480;2022-10-31T04:17:50;14.52;;;6.97;;
41629;SDS011;27322;49.488;8.480;2022-10-31T04:20:28;16.33;;;7.05;;
41629;SDS011;27322;49.488;8.480;2022-10-31T04:22:55;12.43;;;6.90;;
41629;SDS011;27322;49.488;8.480;2022-10-31T04:25:21;14.05;;;7.38;;
41629;SDS011;27322;49.488;8.480;2022-10-31T04:27:46;15.27;;;7.28;;
41629;SDS011;27322;49.488;8.480;2022-10-31T04:30:12;13.75;;;7.55;;
41629;SDS011;27322;49.488;8.480;2022-10-31T04:32:37;10.55;;;6.90;;
41629;SDS011;27322;49.488;8.480;2022-10-31T04:35:03;10.70;;;6.10;;
41629;SDS011;27322;49.488;8.480;2022-10-31T04:37:29;10.70;;;6.63;;
41629;SDS011;27322;49.488;8.480;2022-10-31T04:39:54;12.55;;;6.90;;
41629;SDS011;27322;49.488;8.480;2022-10-31T04:42:20;11.70;;;6.45;;
41629;SDS011;27322;49.488;8.480;2022-10-31T04:44:45;13.98;;;7.15;;
41629;SDS011;27322;49.488;8.480;2022-10-31T04:47:11;12.82;;;6.97;;
41629;SDS011;27322;49.488;8.480;2022-10-31T04:49:36;10.07;;;6.57;;
41629;SDS011;27322;49.488;8.480;2022-10-31T04:52:02;10.77;;;6.68;;
41629;SDS011;27322;49.488;8.480;2022-10-31T04:54:28;14.70;;;7.45;;
41629;SDS011;27322;49.488;8.480;2022-10-31T04:56:53;14.48;;;7.82;;
41629;SDS011;27322;49.488;8.480;2022-10-31T04:59:19;12.27;;;7.15;;
41629;SDS011;27322;49.488;8.480;2022-10-31T05:01:44;15.55;;;7.38;;
41629;SDS011;27322;49.488;8.480;2022-10-31T05:04:10;12.98;;;7.65;;
41629;SDS011;27322;49.488;8.480;2022-10-31T05:06:35;12.75;;;7.60;;
41629;SDS011;27322;49.488;8.480;2022-10-31T05:09:01;16.50;;;7.72;;
41629;SDS011;27322;49.488;8.480;2022-10-31T05:11:27;11.75;;;7.50;;
41629;SDS011;27322;49.488;8.480;2022-10-31T05:13:52;12.57;;;6.25;;
41629;SDS011;27322;49.488;8.480;2022-10-31T05:16:18;14.25;;;5.78;;
41629;SDS011;27322;49.488;8.480;2022-10-31T05:18:44;10.88;;;5.82;;
41629;SDS011;27322;49.488;8.480;2022-10-31T05:21:09;11.85;;;6.43;;
41629;SDS011;27322;49.488;8.480;2022-10-31T05:23:35;11.38;;;6.70;;
41629;SDS011;27322;49.488;8.480;2022-10-31T05:26:00;14.60;;;7.80;;
41629;SDS011;27322;49.488;8.480;2022-10-31T05:28:26;12.18;;;6.85;;
41629;SDS011;27322;49.488;8.480;2022-10-31T05:30:51;11.43;;;6.03;;
41629;SDS011;27322;49.488;8.480;2022-10-31T05:33:17;12.55;;;6.47;;
41629;SDS011;27322;49.488;8.480;2022-10-31T05:35:42;11.45;;;6.88;;
41629;SDS011;27322;49.488;8.480;2022-10-31T05:38:08;12.02;;;6.75;;
41629;SDS011;27322;49.488;8.480;2022-10-31T05:40:33;14.35;;;6.40;;
41629;SDS011;27322;49.488;8.480;2022-10-31T05:42:59;13.07;;;7.03;;
41629;SDS011;27322;49.488;8.480;2022-10-31T05:45:25;13.20;;;7.13;;
41629;SDS011;27322;49.488;8.480;2022-10-31T05:47:51;14.52;;;7.60;;
41629;SDS011;27322;49.488;8.480;2022-10-31T05:50:18;13.05;;;7.82;;
41629;SDS011;27322;49.488;8.480;2022-10-31T05:52:43;13.43;;;7.53;;
41629;SDS011;27322;49.488;8.480;2022-10-31T05:55:09;12.05;;;6.53;;
41629;SDS011;27322;49.488;8.480;2022-10-31T05:57:35;16.95;;;7.38;;
41629;SDS011;27322;49.488;8.480;2022-10-31T06:00:00;14.25;;;7.65;;
41629;SDS011;27322;49.488;8.480;2022-10-31T06:02:26;11.77;;;6.95;;
41629;SDS011;27322;49.488;8.480;2022-10-31T06:04:52;12.50;;;6.60;;
41629;SDS011;27322;49.488;8.480;2022-10-31T06:07:17;14.55;;;7.13;;
41629;SDS011;27322;49.488;8.480;2022-10-31T06:09:43;11.75;;;6.70;;
41629;SDS011;27322;49.488;8.480;2022-10-31T06:12:09;13.18;;;6.82;;
41629;SDS011;27322;49.488;8.480;2022-10-31T06:14:34;11.60;;;6.82;;
41629;SDS011;27322;49.488;8.480;2022-10-31T06:17:00;10.05;;;6.63;;
41629;SDS011;27322;49.488;8.480;2022-10-31T06:19:26;15.20;;;7.28;;
41629;SDS011;27322;49.488;8.480;2022-10-31T06:21:51;12.27;;;6.57;;
41629;SDS011;27322;49.488;8.480;2022-10-31T06:24:17;10.90;;;6.63;;
41629;SDS011;27322;49.488;8.480;2022-10-31T06:26:42;14.38;;;7.05;;
41629;SDS011;27322;49.488;8.480;2022-10-31T06:29:08;10.38;;;6.38;;
41629;SDS011;27322;49.488;8.480;2022-10-31T06:31:33;10.55;;;6.57;;
41629;SDS011;27322;49.488;8.480;2022-10-31T06:33:59;12.50;;;6.53;;
41629;SDS011;27322;49.488;8.480;2022-10-31T06:36:25;11.70;;;6.18;;
41629;SDS011;27322;49.488;8.480;2022-10-31T06:38:50;12.95;;;6.32;;
41629;SDS011;27322;49.488;8.480;2022-10-31T06:41:16;11.45;;;6.50;;
41629;SDS011;27322;49.488;8.480;2022-10-31T06:43:41;11.50;;;6.43;;
41629;SDS011;27322;49.488;8.480;2022-10-31T06:46:07;12.93;;;6.57;;
41629;SDS011;27322;49.488;8.480;2022-10-31T06:48:32;13.52;;;7.85;;
41629;SDS011;27322;49.488;8.480;2022-10-31T06:50:58;14.70;;;8.63;;
41629;SDS011;27322;49.488;8.480;2022-10-31T06:53:25;12.35;;;7.80;;
41629;SDS011;27322;49.488;8.480;2022-10-31T06:55:51;12.75;;;7.65;;
41629;SDS011;27322;49.488;8.480;2022-10-31T06:58:17;10.75;;;6.80;;
41629;SDS011;27322;49.488;8.480;2022-10-31T07:00:42;14.10;;;8.93;;
41629;SDS011;27322;49.488;8.480;2022-10-31T07:03:12;14.15;;;8.10;;
41629;SDS011;27322;49.488;8.480;2022-10-31T07:05:39;14.73;;;8.32;;
41629;SDS011;27322;49.488;8.480;2022-10-31T07:08:06;13.88;;;8.02;;
41629;SDS011;27322;49.488;8.480;2022-10-31T07:10:34;12.70;;;7.90;;
41629;SDS011;27322;49.488;8.480;2022-10-31T07:13:02;14.25;;;7.68;;
41629;SDS011;27322;49.488;8.480;2022-10-31T07:15:30;13.50;;;7.90;;
41629;SDS011;27322;49.488;8.480;2022-10-31T07:17:59;15.75;;;7.65;;
41629;SDS011;27322;49.488;8.480;2022-10-31T07:20:29;11.90;;;7.32;;
41629;SDS011;27322;49.488;8.480;2022-10-31T07:22:54;16.30;;;7.45;;
41629;SDS011;27322;49.488;8.480;2022-10-31T07:25:20;12.63;;;6.80;;
41629;SDS011;27322;49.488;8.480;2022-10-31T07:27:46;13.50;;;7.32;;
41629;SDS011;27322;49.488;8.480;2022-10-31T07:30:13;12.40;;;7.40;;
41629;SDS011;27322;49.488;8.480;2022-10-31T07:32:43;14.32;;;8.02;;
41629;SDS011;27322;49.488;8.480;2022-10-31T07:35:12;13.80;;;7.90;;
41629;SDS011;27322;49.488;8.480;2022-10-31T07:37:39;12.88;;;7.40;;
41629;SDS011;27322;49.488;8.480;2022-10-31T07:40:05;16.67;;;7.88;;
41629;SDS011;27322;49.488;8.480;2022-10-31T07:42:36;14.95;;;8.13;;
41629;SDS011;27322;49.488;8.480;2022-10-31T07:45:02;11.75;;;7.68;;
41629;SDS011;27322;49.488;8.480;2022-10-31T07:47:29;13.38;;;8.27;;
41629;SDS011;27322;49.488;8.480;2022-10-31T07:49:54;16.17;;;8.32;;
41629;SDS011;27322;49.488;8.480;2022-10-31T07:52:20;15.02;;;8.57;;
41629;SDS011;27322;49.488;8.480;2022-10-31T07:54:45;13.85;;;7.93;;
41629;SDS011;27322;49.488;8.480;2022-10-31T07:57:11;12.35;;;7.45;;
41629;SDS011;27322;49.488;8.480;2022-10-31T07:59:37;11.48;;;7.35;;
41629;SDS011;27322;49.488;8.480;2022-10-31T08:02:02;12.82;;;7.72;;
41629;SDS011;27322;49.488;8.480;2022-10-31T08:04:28;12.90;;;7.60;;
41629;SDS011;27322;49.488;8.480;2022-10-31T08:06:53;14.70;;;7.13;;
41629;SDS011;27322;49.488;8.480;2022-10-31T08:09:19;13.18;;;7.32;;
41629;SDS011;27322;49.488;8.480;2022-10-31T08:11:44;14.30;;;7.50;;
41629;SDS011;27322;49.488;8.480;2022-10-31T08:14:10;12.82;;;7.35;;
41629;SDS011;27322;49.488;8.480;2022-10-31T08:16:35;12.32;;;7.65;;
41629;SDS011;27322;49.488;8.480;2022-10-31T08:19:01;12.02;;;7.07;;
41629;SDS011;27322;49.488;8.480;2022-10-31T08:21:26;13.52;;;7.45;;
41629;SDS011;27322;49.488;8.480;2022-10-31T08:23:52;12.60;;;7.20;;
41629;SDS011;27322;49.488;8.480;2022-10-31T08:26:18;12.43;;;7.72;;
41629;SDS011;27322;49.488;8.480;2022-10-31T08:28:43;13.73;;;7.28;;
41629;SDS011;27322;49.488;8.480;2022-10-31T08:31:09;13.95;;;7.50;;
41629;SDS011;27322;49.488;8.480;2022-10-31T08:33:35;13.23;;;7.35;;
41629;SDS011;27322;49.488;8.480;2022-10-31T08:36:00;14.63;;;7.63;;
41629;SDS011;27322;49.488;8.480;2022-10-31T08:38:26;15.82;;;8.15;;
41629;SDS011;27322;49.488;8.480;2022-10-31T08:40:51;13.98;;;7.78;;
41629;SDS011;27322;49.488;8.480;2022-10-31T08:43:17;14.23;;;7.60;;
41629;SDS011;27322;49.488;8.480;2022-10-31T08:45:44;13.52;;;7.53;;
41629;SDS011;27322;49.488;8.480;2022-10-31T08:48:13;13.20;;;7.20;;
41629;SDS011;27322;49.488;8.480;2022-10-31T08:50:40;14.57;;;7.07;;
41629;SDS011;27322;49.488;8.480;2022-10-31T08:53:08;15.55;;;7.28;;
41629;SDS011;27322;49.488;8.480;2022-10-31T08:55:44;15.55;;;7.97;;
41629;SDS011;27322;49.488;8.480;2022-10-31T08:58:12;16.67;;;7.63;;
41629;SDS011;27322;49.488;8.480;2022-10-31T09:00:40;16.65;;;7.75;;
41629;SDS011;27322;49.488;8.480;2022-10-31T09:03:08;16.55;;;9.70;;
41629;SDS011;27322;49.488;8.480;2022-10-31T09:05:39;17.35;;;9.82;;
41629;SDS011;27322;49.488;8.480;2022-10-31T09:08:06;15.15;;;9.77;;
41629;SDS011;27322;49.488;8.480;2022-10-31T09:10:32;16.80;;;10.02;;
41629;SDS011;27322;49.488;8.480;2022-10-31T09:13:07;17.20;;;10.32;;
41629;SDS011;27322;49.488;8.480;2022-10-31T09:15:38;68.50;;;13.93;;
41629;SDS011;27322;49.488;8.480;2022-10-31T09:18:05;33.20;;;12.80;;
41629;SDS011;27322;49.488;8.480;2022-10-31T09:20:32;23.13;;;11.95;;
41629;SDS011;27322;49.488;8.480;2022-10-31T09:22:59;21.52;;;11.82;;
41629;SDS011;27322;49.488;8.480;2022-10-31T09:25:26;26.50;;;13.73;;
41629;SDS011;27322;49.488;8.480;2022-10-31T09:27:56;20.08;;;12.55;;
41629;SDS011;27322;49.488;8.480;2022-10-31T09:30:22;26.02;;;13.82;;
41629;SDS011;27322;49.488;8.480;2022-10-31T09:32:48;24.45;;;13.80;;
41629;SDS011;27322;49.488;8.480;2022-10-31T09:35:19;26.67;;;13.35;;
41629;SDS011;27322;49.488;8.480;2022-10-31T09:37:45;22.00;;;14.45;;
41629;SDS011;27322;49.488;8.480;2022-10-31T09:40:10;20.98;;;13.38;;
41629;SDS011;27322;49.488;8.480;2022-10-31T09:48:08;22.10;;;12.10;;
41629;SDS011;27322;49.488;8.480;2022-10-31T09:50:47;22.63;;;13.45;;
41629;SDS011;27322;49.488;8.480;2022-10-31T09:56:02;26.52;;;14.40;;
41629;SDS011;27322;49.488;8.480;2022-10-31T09:58:33;24.02;;;14.13;;
41629;SDS011;27322;49.488;8.480;2022-10-31T10:01:05;23.05;;;14.45;;
41629;SDS011;27322;49.488;8.480;2022-10-31T10:03:40;23.55;;;14.35;;
41629;SDS011;27322;49.488;8.480;2022-10-31T10:06:44;25.52;;;14.73;;
41629;SDS011;27322;49.488;8.480;2022-10-31T10:09:03;20.25;;;11.90;;
41629;SDS011;27322;49.488;8.480;2022-10-31T10:22:49;27.60;;;15.20;;
41629;SDS011;27322;49.488;8.480;2022-10-31T10:25:24;22.73;;;16.75;;
41629;SDS011;27322;49.488;8.480;2022-10-31T10:30:46;22.95;;;14.80;;
41629;SDS011;27322;49.488;8.480;2022-10-31T10:33:40;18.58;;;13.40;;
41629;SDS011;27322;49.488;8.480;2022-10-31T10:36:17;19.52;;;13.10;;
41629;SDS011;27322;49.488;8.480;2022-10-31T10:39:09;23.85;;;16.30;;
41629;SDS011;27322;49.488;8.480;2022-10-31T10:41:41;20.05;;;14.30;;
41629;SDS011;27322;49.488;8.480;2022-10-31T10:44:11;20.02;;;13.90;;
41629;SDS011;27322;49.488;8.480;2022-10-31T10:52:28;17.80;;;12.10;;
41629;SDS011;27322;49.488;8.480;2022-10-31T11:00:37;20.00;;;12.02;;
41629;SDS011;27322;49.488;8.480;2022-10-31T11:03:05;16.73;;;11.57;;
41629;SDS011;27322;49.488;8.480;2022-10-31T11:08:29;20.25;;;13.57;;
41629;SDS011;27322;49.488;8.480;2022-10-31T11:11:13;19.02;;;11.73;;
41629;SDS011;27322;49.488;8.480;2022-10-31T11:13:49;17.70;;;13.15;;
41629;SDS011;27322;49.488;8.480;2022-10-31T11:16:28;20.73;;;11.50;;
41629;SDS011;27322;49.488;8.480;2022-10-31T11:19:13;16.40;;;12.00;;
41629;SDS011;27322;49.488;8.480;2022-10-31T11:21:48;15.90;;;11.35;;
41629;SDS011;27322;49.488;8.480;2022-10-31T11:26:41;21.92;;;11.20;;
41629;SDS011;27322;49.488;8.480;2022-10-31T11:29:12;15.98;;;10.95;;
41629;SDS011;27322;49.488;8.480;2022-10-31T11:31:41;17.75;;;11.77;;
41629;SDS011;27322;49.488;8.480;2022-10-31T11:37:15;19.00;;;11.30;;
41629;SDS011;27322;49.488;8.480;2022-10-31T11:39:44;18.42;;;11.88;;
41629;SDS011;27322;49.488;8.480;2022-10-31T11:42:18;17.48;;;12.05;;
41629;SDS011;27322;49.488;8.480;2022-10-31T11:44:48;23.08;;;13.15;;
41629;SDS011;27322;49.488;8.480;2022-10-31T11:47:15;23.08;;;13.88;;
41629;SDS011;27322;49.488;8.480;2022-10-31T11:49:43;19.33;;;12.70;;
41629;SDS011;27322;49.488;8.480;2022-10-31T11:52:22;18.58;;;12.18;;
41629;SDS011;27322;49.488;8.480;2022-10-31T11:54:54;20.08;;;12.63;;
41629;SDS011;27322;49.488;8.480;2022-10-31T11:57:28;18.95;;;12.38;;
41629;SDS011;27322;49.488;8.480;2022-10-31T11:59:57;20.42;;;13.25;;
41629;SDS011;27322;49.488;8.480;2022-10-31T12:02:28;23.38;;;12.35;;
41629;SDS011;27322;49.488;8.480;2022-10-31T12:07:45;20.27;;;12.40;;
41629;SDS011;27322;49.488;8.480;2022-10-31T12:10:11;21.77;;;12.80;;
41629;SDS011;27322;49.488;8.480;2022-10-31T12:12:53;20.75;;;12.40;;
41629;SDS011;27322;49.488;8.480;2022-10-31T12:15:34;17.60;;;11.15;;
41629;SDS011;27322;49.488;8.480;2022-10-31T12:21:06;20.58;;;11.65;;
41629;SDS011;27322;49.488;8.480;2022-10-31T12:34:32;22.95;;;14.35;;
41629;SDS011;27322;49.488;8.480;2022-10-31T12:45:44;25.45;;;15.43;;
41629;SDS011;27322;49.488;8.480;2022-10-31T12:48:17;22.60;;;14.65;;
41629;SDS011;27322;49.488;8.480;2022-10-31T12:50:52;27.40;;;16.27;;
41629;SDS011;27322;49.488;8.480;2022-10-31T12:56:12;28.95;;;17.83;;
41629;SDS011;27322;49.488;8.480;2022-10-31T12:58:51;25.40;;;16.17;;
41629;SDS011;27322;49.488;8.480;2022-10-31T13:01:26;27.58;;;16.60;;
41629;SDS011;27322;49.488;8.480;2022-10-31T13:06:27;26.40;;;14.48;;
41629;SDS011;27322;49.488;8.480;2022-10-31T13:08:57;21.88;;;14.45;;
41629;SDS011;27322;49.488;8.480;2022-10-31T13:11:32;25.38;;;14.27;;
41629;SDS011;27322;49.488;8.480;2022-10-31T13:14:23;21.70;;;13.68;;
41629;SDS011;27322;49.488;8.480;2022-10-31T13:17:18;23.40;;;12.77;;
41629;SDS011;27322;49.488;8.480;2022-10-31T13:19:49;20.70;;;12.10;;
41629;SDS011;27322;49.488;8.480;2022-10-31T13:22:20;20.48;;;11.93;;
41629;SDS011;27322;49.488;8.480;2022-10-31T13:27:28;20.40;;;12.00;;
41629;SDS011;27322;49.488;8.480;2022-10-31T13:38:24;18.55;;;10.40;;
41629;SDS011;27322;49.488;8.480;2022-10-31T13:46:26;18.38;;;9.85;;
41629;SDS011;27322;49.488;8.480;2022-10-31T13:49:03;14.15;;;9.05;;
41629;SDS011;27322;49.488;8.480;2022-10-31T13:51:46;15.30;;;9.57;;
41629;SDS011;27322;49.488;8.480;2022-10-31T13:54:20;18.85;;;10.50;;
41629;SDS011;27322;49.488;8.480;2022-10-31T13:56:50;18.90;;;10.30;;
41629;SDS011;27322;49.488;8.480;2022-10-31T14:01:50;19.58;;;12.07;;
41629;SDS011;27322;49.488;8.480;2022-10-31T14:04:23;21.35;;;12.18;;
41629;SDS011;27322;49.488;8.480;2022-10-31T14:07:10;25.80;;;13.75;;
41629;SDS011;27322;49.488;8.480;2022-10-31T14:14:49;27.70;;;14.27;;
41629;SDS011;27322;49.488;8.480;2022-10-31T14:17:21;26.10;;;15.57;;
41629;SDS011;27322;49.488;8.480;2022-10-31T14:19:56;26.77;;;14.85;;
41629;SDS011;27322;49.488;8.480;2022-10-31T14:22:31;24.58;;;14.25;;
41629;SDS011;27322;49.488;8.480;2022-10-31T14:24:58;24.15;;;13.05;;
41629;SDS011;27322;49.488;8.480;2022-10-31T14:29:53;23.20;;;12.93;;
41629;SDS011;27322;49.488;8.480;2022-10-31T14:37:25;20.13;;;11.32;;
41629;SDS011;27322;49.488;8.480;2022-10-31T14:40:27;19.88;;;11.90;;
41629;SDS011;27322;49.488;8.480;2022-10-31T14:46:16;19.03;;;11.73;;
41629;SDS011;27322;49.488;8.480;2022-10-31T14:51:31;24.97;;;13.43;;
41629;SDS011;27322;49.488;8.480;2022-10-31T14:54:04;21.65;;;12.77;;
41629;SDS011;27322;49.488;8.480;2022-10-31T14:56:35;22.13;;;12.25;;
41629;SDS011;27322;49.488;8.480;2022-10-31T14:59:09;20.80;;;12.63;;
41629;SDS011;27322;49.488;8.480;2022-10-31T15:01:39;25.33;;;12.52;;
41629;SDS011;27322;49.488;8.480;2022-10-31T15:04:15;22.70;;;13.30;;
41629;SDS011;27322;49.488;8.480;2022-10-31T15:06:47;22.98;;;13.27;;
41629;SDS011;27322;49.488;8.480;2022-10-31T15:09:32;24.55;;;12.98;;
41629;SDS011;27322;49.488;8.480;2022-10-31T15:11:59;20.80;;;12.50;;
41629;SDS011;27322;49.488;8.480;2022-10-31T15:14:43;20.05;;;11.63;;
41629;SDS011;27322;49.488;8.480;2022-10-31T15:17:09;19.42;;;11.75;;
41629;SDS011;27322;49.488;8.480;2022-10-31T15:19:37;22.00;;;12.02;;
41629;SDS011;27322;49.488;8.480;2022-10-31T15:22:03;25.30;;;13.40;;
41629;SDS011;27322;49.488;8.480;2022-10-31T15:24:36;19.63;;;12.23;;
41629;SDS011;27322;49.488;8.480;2022-10-31T15:27:03;19.27;;;11.80;;
41629;SDS011;27322;49.488;8.480;2022-10-31T15:29:29;19.48;;;11.77;;
41629;SDS011;27322;49.488;8.480;2022-10-31T15:34:22;19.88;;;12.40;;
41629;SDS011;27322;49.488;8.480;2022-10-31T15:37:03;19.50;;;11.95;;
41629;SDS011;27322;49.488;8.480;2022-10-31T15:39:30;19.23;;;12.48;;
41629;SDS011;27322;49.488;8.480;2022-10-31T15:41:56;18.48;;;12.48;;
41629;SDS011;27322;49.488;8.480;2022-10-31T15:46:57;19.23;;;11.30;;
41629;SDS011;27322;49.488;8.480;2022-10-31T15:49:38;20.08;;;12.00;;
41629;SDS011;27322;49.488;8.480;2022-10-31T15:55:00;17.85;;;11.23;;
41629;SDS011;27322;49.488;8.480;2022-10-31T15:57:29;18.17;;;10.88;;
41629;SDS011;27322;49.488;8.480;2022-10-31T15:59:55;22.55;;;11.70;;
41629;SDS011;27322;49.488;8.480;2022-10-31T16:02:22;18.50;;;10.70;;
41629;SDS011;27322;49.488;8.480;2022-10-31T16:04:50;18.10;;;11.10;;
41629;SDS011;27322;49.488;8.480;2022-10-31T16:07:22;19.10;;;11.32;;
41629;SDS011;27322;49.488;8.480;2022-10-31T16:09:55;19.85;;;11.40;;
41629;SDS011;27322;49.488;8.480;2022-10-31T16:14:50;20.52;;;11.15;;
41629;SDS011;27322;49.488;8.480;2022-10-31T16:17:18;16.20;;;10.30;;
41629;SDS011;27322;49.488;8.480;2022-10-31T16:20:06;23.30;;;10.93;;
41629;SDS011;27322;49.488;8.480;2022-10-31T16:22:35;17.13;;;10.18;;
41629;SDS011;27322;49.488;8.480;2022-10-31T16:25:13;16.63;;;10.40;;
41629;SDS011;27322;49.488;8.480;2022-10-31T16:27:46;17.75;;;9.93;;
41629;SDS011;27322;49.488;8.480;2022-10-31T16:33:19;17.92;;;10.40;;
41629;SDS011;27322;49.488;8.480;2022-10-31T16:35:51;17.27;;;11.02;;
41629;SDS011;27322;49.488;8.480;2022-10-31T16:38:18;20.35;;;10.55;;
41629;SDS011;27322;49.488;8.480;2022-10-31T16:40:43;20.20;;;10.13;;
41629;SDS011;27322;49.488;8.480;2022-10-31T16:43:11;16.50;;;9.48;;
41629;SDS011;27322;49.488;8.480;2022-10-31T16:45:42;14.45;;;8.82;;
41629;SDS011;27322;49.488;8.480;2022-10-31T16:48:16;16.33;;;8.40;;
41629;SDS011;27322;49.488;8.480;2022-10-31T16:50:48;18.42;;;9.30;;
41629;SDS011;27322;49.488;8.480;2022-10-31T16:53:15;18.20;;;9.82;;
41629;SDS011;27322;49.488;8.480;2022-10-31T16:55:42;15.35;;;8.73;;
41629;SDS011;27322;49.488;8.480;2022-10-31T16:58:16;15.73;;;9.07;;
41629;SDS011;27322;49.488;8.480;2022-10-31T17:00:45;18.57;;;8.87;;
41629;SDS011;27322;49.488;8.480;2022-10-31T17:03:11;18.95;;;9.88;;
41629;SDS011;27322;49.488;8.480;2022-10-31T17:05:37;16.10;;;9.50;;
41629;SDS011;27322;49.488;8.480;2022-10-31T17:08:02;16.30;;;8.88;;
41629;SDS011;27322;49.488;8.480;2022-10-31T17:10:31;16.77;;;9.50;;
41629;SDS011;27322;49.488;8.480;2022-10-31T17:12:57;16.95;;;9.48;;
41629;SDS011;27322;49.488;8.480;2022-10-31T17:15:24;16.25;;;8.63;;
41629;SDS011;27322;49.488;8.480;2022-10-31T17:17:52;17.77;;;8.55;;
41629;SDS011;27322;49.488;8.480;2022-10-31T17:20:19;15.40;;;8.68;;
41629;SDS011;27322;49.488;8.480;2022-10-31T17:22:51;15.63;;;8.40;;
41629;SDS011;27322;49.488;8.480;2022-10-31T17:25:19;14.27;;;8.60;;
41629;SDS011;27322;49.488;8.480;2022-10-31T17:27:49;19.60;;;9.27;;